createdAt,value
2018-04-26T00:00:15.823Z,3.37
2018-04-26T00:02:43.477Z,3.53
2018-04-26T00:05:11.130Z,2.57
2018-04-26T00:07:38.711Z,3.27
2018-04-26T00:10:06.283Z,3.03
2018-04-26T00:12:33.852Z,3.30
2018-04-26T00:15:01.429Z,3.70
2018-04-26T00:17:28.999Z,3.00
2018-04-26T00:19:56.610Z,4.03
2018-04-26T00:22:24.189Z,3.43
2018-04-26T00:24:51.802Z,3.10
2018-04-26T00:27:19.414Z,3.33
2018-04-26T00:29:47.025Z,3.73
2018-04-26T00:32:14.644Z,3.93
2018-04-26T00:34:42.270Z,3.30
2018-04-26T00:37:09.836Z,3.90
2018-04-26T00:39:37.494Z,3.80
2018-04-26T00:42:05.152Z,3.33
2018-04-26T00:44:32.763Z,3.30
2018-04-26T00:47:00.373Z,3.63
2018-04-26T00:49:27.995Z,2.87
2018-04-26T00:52:01.647Z,4.23
2018-04-26T00:54:29.341Z,3.30
2018-04-26T00:56:56.922Z,3.13
2018-04-26T00:59:24.494Z,3.80
2018-04-26T01:01:52.149Z,4.50
2018-04-26T01:04:19.725Z,4.33
2018-04-26T01:06:47.296Z,3.80
2018-04-26T01:09:14.865Z,4.40
2018-04-26T01:11:44.228Z,3.03
2018-04-26T01:14:11.804Z,3.50
2018-04-26T01:16:39.412Z,3.83
2018-04-26T01:19:07.270Z,4.10
2018-04-26T01:21:34.879Z,4.20
2018-04-26T01:24:02.486Z,3.37
2018-04-26T01:26:30.055Z,4.10
2018-04-26T01:28:57.665Z,4.80
2018-04-26T01:31:25.239Z,4.20
2018-04-26T01:33:52.848Z,3.93
2018-04-26T01:36:32.381Z,3.90
2018-04-26T01:38:59.989Z,3.93
2018-04-26T01:41:27.557Z,3.63
2018-04-26T01:43:55.162Z,3.87
2018-04-26T01:46:22.739Z,3.80
2018-04-26T01:48:50.342Z,4.50
2018-04-26T01:51:17.946Z,4.70
2018-04-26T01:53:45.541Z,4.63
2018-04-26T01:56:13.168Z,4.50
2018-04-26T01:58:41.034Z,4.40
2018-04-26T02:01:08.806Z,5.10
2018-04-26T02:03:36.465Z,4.13
2018-04-26T02:06:04.041Z,3.97
2018-04-26T02:08:31.693Z,4.57
2018-04-26T02:10:59.287Z,4.60
2018-04-26T02:13:26.891Z,4.40
2018-04-26T02:15:54.470Z,4.40
2018-04-26T02:18:22.070Z,5.17
2018-04-26T02:20:49.727Z,4.60
2018-04-26T02:23:17.364Z,4.30
2018-04-26T02:25:44.934Z,5.40
2018-04-26T02:28:12.586Z,5.30
2018-04-26T02:30:40.162Z,5.20
2018-04-26T02:33:07.741Z,5.20
2018-04-26T02:35:35.322Z,5.03
2018-04-26T02:38:02.936Z,5.50
2018-04-26T02:40:30.506Z,5.80
2018-04-26T02:42:58.081Z,5.90
2018-04-26T02:45:25.698Z,6.40
2018-04-26T02:47:53.274Z,5.80
2018-04-26T02:50:20.895Z,6.80
2018-04-26T02:52:48.473Z,4.93
2018-04-26T02:55:16.073Z,6.10
2018-04-26T02:57:43.779Z,6.10
2018-04-26T03:00:11.444Z,6.30
2018-04-26T03:02:39.052Z,6.07
2018-04-26T03:05:06.635Z,5.33
2018-04-26T03:07:34.209Z,6.07
2018-04-26T03:10:01.785Z,6.23
2018-04-26T03:12:29.370Z,5.90
2018-04-26T03:14:56.975Z,6.27
2018-04-26T03:17:24.550Z,5.87
2018-04-26T03:19:52.143Z,5.53
2018-04-26T03:22:20.315Z,6.27
2018-04-26T03:24:47.888Z,6.17
2018-04-26T03:27:15.498Z,6.10
2018-04-26T03:29:43.071Z,5.03
2018-04-26T03:32:10.706Z,5.53
2018-04-26T03:34:38.314Z,5.60
2018-04-26T03:37:05.888Z,6.00
2018-04-26T03:39:33.493Z,6.10
2018-04-26T03:42:01.065Z,5.37
2018-04-26T03:44:28.669Z,5.90
2018-04-26T03:46:56.278Z,6.40
2018-04-26T03:49:23.894Z,7.00
2018-04-26T03:51:51.472Z,6.60
2018-04-26T03:54:19.049Z,7.80
2018-04-26T03:56:46.629Z,7.60
2018-04-26T03:59:14.210Z,6.90
2018-04-26T04:01:53.755Z,7.10
2018-04-26T04:04:33.314Z,7.53
2018-04-26T04:07:00.974Z,7.03
2018-04-26T04:09:28.549Z,7.30
2018-04-26T04:11:56.165Z,7.43
2018-04-26T04:14:23.810Z,7.50
2018-04-26T04:16:51.385Z,7.80
2018-04-26T04:19:18.960Z,6.70
2018-04-26T04:21:46.537Z,8.07
2018-04-26T04:24:14.117Z,7.67
2018-04-26T04:26:41.727Z,7.00
2018-04-26T04:29:09.302Z,7.73
2018-04-26T04:31:36.991Z,7.13
2018-04-26T04:34:04.635Z,8.43
2018-04-26T04:36:32.235Z,7.60
2018-04-26T04:38:59.850Z,7.47
2018-04-26T04:41:27.458Z,8.30
2018-04-26T04:43:55.872Z,7.50
2018-04-26T04:46:23.449Z,7.40
2018-04-26T04:48:51.080Z,6.90
2018-04-26T04:51:19.455Z,7.50
2018-04-26T04:53:47.067Z,7.50
2018-04-26T04:56:14.695Z,7.13
2018-04-26T04:58:42.302Z,7.40
2018-04-26T05:01:09.879Z,7.70
2018-04-26T05:03:37.478Z,7.60
2018-04-26T05:06:05.063Z,8.97
2018-04-26T05:08:32.664Z,7.83
2018-04-26T05:11:00.245Z,8.37
2018-04-26T05:13:27.878Z,7.80
2018-04-26T05:15:55.644Z,8.20
2018-04-26T05:18:23.321Z,8.30
2018-04-26T05:20:51.590Z,7.27
2018-04-26T05:23:26.181Z,7.73
2018-04-26T05:25:59.105Z,7.27
2018-04-26T05:28:26.704Z,7.50
2018-04-26T05:30:54.527Z,7.80
2018-04-26T05:33:22.367Z,9.10
2018-04-26T05:35:50.006Z,8.30
2018-04-26T05:38:17.577Z,7.90
2018-04-26T05:40:45.259Z,6.83
2018-04-26T05:43:12.842Z,7.67
2018-04-26T05:45:40.417Z,7.30
2018-04-26T05:48:08.002Z,7.37
2018-04-26T05:50:35.678Z,6.60
2018-04-26T05:53:03.369Z,6.87
2018-04-26T05:55:30.965Z,8.10
2018-04-26T05:57:58.549Z,7.80
2018-04-26T06:00:26.229Z,7.13
2018-04-26T06:02:53.809Z,6.70
2018-04-26T06:05:21.399Z,6.93
2018-04-26T06:07:49.007Z,7.23
2018-04-26T06:10:16.622Z,6.80
2018-04-26T06:12:44.200Z,6.40
2018-04-26T06:15:11.777Z,7.80
2018-04-26T06:17:39.423Z,8.37
2018-04-26T06:20:06.998Z,7.20
2018-04-26T06:22:34.607Z,7.00
2018-04-26T06:25:02.227Z,7.20
2018-04-26T06:27:29.898Z,7.30
2018-04-26T06:29:57.478Z,7.20
2018-04-26T06:32:25.052Z,7.73
2018-04-26T06:34:52.636Z,7.30
2018-04-26T06:37:20.226Z,7.30
2018-04-26T06:39:47.857Z,8.13
2018-04-26T06:42:15.508Z,7.73
2018-04-26T06:44:43.042Z,7.93
2018-04-26T06:47:10.694Z,8.83
2018-04-26T06:49:38.287Z,8.77
2018-04-26T06:52:05.910Z,8.80
2018-04-26T06:54:33.493Z,9.97
2018-04-26T06:57:01.069Z,9.60
2018-04-26T06:59:28.658Z,11.20
2018-04-26T07:01:56.276Z,9.00
2018-04-26T07:04:23.922Z,9.50
2018-04-26T07:06:52.419Z,10.67
2018-04-26T07:09:20.010Z,11.13
2018-04-26T07:11:47.621Z,7.80
2018-04-26T07:14:15.292Z,8.20
2018-04-26T07:16:42.907Z,7.80
2018-04-26T07:19:10.481Z,8.90
2018-04-26T07:21:38.082Z,9.73
2018-04-26T07:24:05.654Z,8.27
2018-04-26T07:26:33.270Z,8.60
2018-04-26T07:29:01.273Z,7.70
2018-04-26T07:31:28.921Z,8.70
2018-04-26T07:33:56.505Z,9.63
2018-04-26T07:36:24.189Z,9.40
2018-04-26T07:38:51.870Z,9.70
2018-04-26T07:41:19.582Z,9.70
2018-04-26T07:43:47.164Z,9.77
2018-04-26T07:46:14.745Z,9.17
2018-04-26T07:48:42.326Z,8.83
2018-04-26T07:51:09.931Z,8.77
2018-04-26T07:53:37.513Z,9.47
2018-04-26T07:56:05.157Z,9.07
2018-04-26T07:58:32.742Z,8.00
2018-04-26T08:01:00.323Z,7.77
2018-04-26T08:03:27.938Z,8.30
2018-04-26T08:05:55.529Z,8.80
2018-04-26T08:08:23.160Z,8.20
2018-04-26T08:10:50.747Z,9.13
2018-04-26T08:13:18.359Z,10.20
2018-04-26T08:15:45.949Z,10.93
2018-04-26T08:18:13.558Z,11.17
2018-04-26T08:20:41.169Z,12.27
2018-04-26T08:23:08.781Z,12.70
2018-04-26T08:25:36.394Z,12.13
2018-04-26T08:28:03.994Z,13.07
2018-04-26T08:30:31.630Z,11.80
2018-04-26T08:33:09.418Z,13.63
2018-04-26T08:35:39.126Z,11.60
2018-04-26T08:38:07.535Z,12.00
2018-04-26T08:40:35.120Z,12.30
2018-04-26T08:43:02.713Z,10.93
2018-04-26T08:45:30.315Z,10.37
2018-04-26T08:47:57.910Z,11.83
2018-04-26T08:50:25.489Z,9.40
2018-04-26T08:52:53.111Z,10.00
2018-04-26T08:55:20.775Z,9.20
2018-04-26T08:57:48.386Z,9.73
2018-04-26T09:00:15.965Z,8.97
2018-04-26T09:02:43.578Z,7.97
2018-04-26T09:05:11.183Z,8.30
2018-04-26T09:07:38.763Z,8.27
2018-04-26T09:10:06.366Z,6.97
2018-04-26T09:12:33.946Z,8.00
2018-04-26T09:15:01.558Z,7.40
2018-04-26T09:17:29.137Z,8.47
2018-04-26T09:19:56.717Z,7.80
2018-04-26T09:22:24.301Z,8.30
2018-04-26T09:24:51.874Z,7.27
2018-04-26T09:27:19.490Z,10.07
2018-04-26T09:29:47.070Z,7.80
2018-04-26T09:32:14.647Z,8.90
2018-04-26T09:34:42.222Z,6.10
2018-04-26T09:37:09.806Z,7.33
2018-04-26T09:39:37.381Z,7.07
2018-04-26T09:42:04.960Z,9.83
2018-04-26T09:44:32.537Z,8.60
2018-04-26T09:47:00.113Z,10.27
2018-04-26T09:49:27.734Z,8.70
2018-04-26T09:51:55.309Z,9.70
2018-04-26T09:54:22.886Z,10.97
2018-04-26T09:56:50.471Z,11.90
2018-04-26T09:59:18.134Z,8.97
2018-04-26T10:01:45.878Z,8.80
2018-04-26T10:04:23.093Z,6.40
2018-04-26T10:06:57.194Z,6.80
2018-04-26T10:09:24.765Z,5.97
2018-04-26T10:11:52.341Z,6.50
2018-04-26T10:14:19.921Z,6.37
2018-04-26T10:16:47.499Z,6.87
2018-04-26T10:19:15.069Z,4.70
2018-04-26T10:21:42.633Z,4.30
2018-04-26T10:24:10.214Z,5.27
2018-04-26T10:26:37.789Z,3.57
2018-04-26T10:29:05.381Z,3.67
2018-04-26T10:31:32.955Z,4.00
2018-04-26T10:34:00.542Z,4.27
2018-04-26T10:36:28.147Z,4.77
2018-04-26T10:38:55.717Z,3.97
2018-04-26T10:41:23.294Z,4.17
2018-04-26T10:43:51.031Z,4.30
2018-04-26T10:46:18.608Z,3.70
2018-04-26T10:48:46.275Z,4.37
2018-04-26T10:51:13.866Z,4.63
2018-04-26T10:53:41.447Z,4.90
2018-04-26T10:56:09.102Z,5.60
2018-04-26T10:58:36.742Z,4.30
2018-04-26T11:01:04.314Z,3.80
2018-04-26T11:03:31.893Z,3.80
2018-04-26T11:05:59.507Z,5.30
2018-04-26T11:08:27.088Z,4.80
2018-04-26T11:10:54.674Z,4.57
2018-04-26T11:13:22.553Z,5.70
2018-04-26T11:15:50.131Z,4.57
2018-04-26T11:18:17.715Z,4.33
2018-04-26T11:20:45.286Z,5.00
2018-04-26T11:23:12.860Z,4.00
2018-04-26T11:25:40.434Z,4.43
2018-04-26T11:28:08.010Z,3.90
2018-04-26T11:30:35.646Z,4.57
2018-04-26T11:33:03.241Z,3.70
2018-04-26T11:35:30.922Z,3.70
2018-04-26T11:37:58.503Z,3.90
2018-04-26T11:40:26.087Z,4.03
2018-04-26T11:42:53.709Z,3.90
2018-04-26T11:45:21.298Z,3.10
2018-04-26T11:47:48.880Z,3.07
2018-04-26T11:50:16.450Z,2.83
2018-04-26T11:52:44.058Z,3.33
2018-04-26T11:55:11.717Z,3.07
2018-04-26T11:57:39.293Z,3.00
2018-04-26T12:00:06.868Z,3.50
2018-04-26T12:02:34.461Z,3.77
2018-04-26T12:05:02.127Z,2.43
2018-04-26T12:07:29.732Z,2.73
2018-04-26T12:09:57.305Z,2.33
2018-04-26T12:12:24.883Z,2.80
2018-04-26T12:14:52.670Z,2.87
2018-04-26T12:17:20.250Z,2.40
2018-04-26T12:19:47.827Z,2.30
2018-04-26T12:22:15.537Z,2.40
2018-04-26T12:24:43.115Z,2.50
2018-04-26T12:27:10.704Z,2.80
2018-04-26T12:29:38.287Z,2.30
2018-04-26T12:32:05.858Z,2.30
2018-04-26T12:34:33.435Z,2.27
2018-04-26T12:37:01.018Z,2.90
2018-04-26T12:39:28.600Z,2.73
2018-04-26T12:41:56.187Z,2.93
2018-04-26T12:44:23.765Z,2.60
2018-04-26T12:46:51.334Z,2.60
2018-04-26T12:49:19.522Z,2.50
2018-04-26T12:51:47.102Z,2.90
2018-04-26T12:54:14.777Z,3.27
2018-04-26T12:56:42.361Z,2.80
2018-04-26T12:59:09.936Z,3.00
2018-04-26T13:01:37.514Z,2.70
2018-04-26T13:04:05.097Z,2.40
2018-04-26T13:06:32.679Z,2.43
2018-04-26T13:09:00.285Z,3.50
2018-04-26T13:11:27.949Z,2.80
2018-04-26T13:13:55.530Z,3.17
2018-04-26T13:16:23.179Z,3.23
2018-04-26T13:18:50.758Z,2.77
2018-04-26T13:21:18.450Z,2.80
2018-04-26T13:23:45.954Z,3.00
2018-04-26T13:26:13.534Z,2.87
2018-04-26T13:28:41.110Z,2.80
2018-04-26T13:31:08.691Z,2.90
2018-04-26T13:33:36.272Z,2.77
2018-04-26T13:36:03.856Z,1.80
2018-04-26T13:38:31.435Z,1.33
2018-04-26T13:40:59.015Z,1.93
2018-04-26T13:43:26.591Z,1.67
2018-04-26T13:45:54.198Z,1.20
2018-04-26T13:48:21.800Z,1.30
2018-04-26T13:50:49.427Z,1.77
2018-04-26T13:53:17.043Z,1.47
2018-04-26T13:55:44.653Z,1.30
2018-04-26T13:58:12.237Z,1.63
2018-04-26T14:00:39.891Z,1.80
2018-04-26T14:03:07.543Z,1.83
2018-04-26T14:05:35.226Z,1.90
2018-04-26T14:08:02.811Z,2.00
2018-04-26T14:10:30.431Z,2.20
2018-04-26T14:12:58.010Z,2.23
2018-04-26T14:15:25.651Z,1.83
2018-04-26T14:17:53.253Z,2.10
2018-04-26T14:20:20.835Z,2.07
2018-04-26T14:22:48.433Z,1.60
2018-04-26T14:25:16.018Z,1.50
2018-04-26T14:27:43.594Z,1.40
2018-04-26T14:30:11.179Z,1.30
2018-04-26T14:32:38.799Z,1.60
2018-04-26T14:35:06.369Z,1.70
2018-04-26T14:37:33.961Z,1.50
2018-04-26T14:40:01.586Z,1.80
2018-04-26T14:42:29.166Z,1.70
2018-04-26T14:44:56.755Z,1.70
2018-04-26T14:47:24.449Z,1.80
2018-04-26T14:49:52.111Z,1.73
2018-04-26T14:52:19.694Z,1.57
2018-04-26T14:54:47.270Z,1.50
2018-04-26T14:57:14.850Z,1.80
2018-04-26T14:59:42.432Z,1.93
2018-04-26T15:02:10.016Z,2.00
2018-04-26T15:04:37.598Z,1.50
2018-04-26T15:07:06.093Z,1.50
2018-04-26T15:09:33.675Z,1.20
2018-04-26T15:12:01.250Z,2.20
2018-04-26T15:14:28.830Z,1.50
2018-04-26T15:16:56.510Z,1.60
2018-04-26T15:19:24.172Z,1.60
2018-04-26T15:21:51.755Z,1.43
2018-04-26T15:24:19.388Z,1.53
2018-04-26T15:29:08.022Z,1.40
2018-04-26T15:31:35.595Z,1.80
2018-04-26T15:34:03.177Z,1.40
2018-04-26T15:36:30.809Z,1.13
2018-04-26T15:38:58.385Z,1.90
2018-04-26T15:41:26.006Z,1.77
2018-04-26T15:43:53.586Z,2.23
2018-04-26T15:46:21.329Z,1.53
2018-04-26T15:48:48.935Z,2.13
2018-04-26T15:51:18.590Z,1.77
2018-04-26T15:53:58.093Z,1.90
2018-04-26T15:56:37.569Z,2.30
2018-04-26T15:59:17.231Z,1.73
2018-04-26T16:05:14.081Z,2.43
2018-04-26T16:07:59.565Z,2.40
2018-04-26T16:10:44.781Z,2.53
2018-04-26T16:13:30.058Z,2.40
2018-04-26T16:19:05.125Z,2.90
2018-04-26T16:21:44.671Z,2.27
2018-04-26T16:24:29.641Z,2.27
2018-04-26T16:27:14.885Z,2.10
2018-04-26T16:29:54.293Z,2.10
2018-04-26T16:32:37.260Z,2.30
2018-04-26T16:35:20.610Z,2.37
2018-04-26T16:38:05.959Z,2.63
2018-04-26T16:40:33.547Z,2.90
2018-04-26T16:43:01.208Z,2.60
2018-04-26T16:45:28.802Z,2.50
2018-04-26T16:47:56.375Z,2.60
2018-04-26T16:50:24.054Z,2.87
2018-04-26T16:52:51.651Z,2.70
2018-04-26T16:55:19.239Z,2.57
2018-04-26T16:57:46.823Z,2.60
2018-04-26T17:03:16.881Z,3.17
2018-04-26T17:05:44.506Z,2.27
2018-04-26T17:08:12.087Z,2.30
2018-04-26T17:10:39.729Z,2.53
2018-04-26T17:13:09.198Z,2.83
2018-04-26T17:15:36.913Z,2.57
2018-04-26T17:18:04.493Z,2.37
2018-04-26T17:20:32.121Z,2.13
2018-04-26T17:22:59.789Z,3.50
2018-04-26T17:25:27.413Z,2.70
2018-04-26T17:27:55.080Z,2.10
2018-04-26T17:30:22.641Z,2.60
2018-04-26T17:32:50.343Z,2.67
2018-04-26T17:35:17.999Z,2.70
2018-04-26T17:37:45.577Z,2.37
2018-04-26T17:40:13.241Z,2.70
2018-04-26T17:42:40.773Z,3.33
2018-04-26T17:45:08.383Z,3.17
2018-04-26T17:47:35.999Z,2.33
2018-04-26T17:50:03.586Z,3.10
2018-04-26T17:52:31.230Z,3.03
2018-04-26T17:54:58.894Z,2.97
2018-04-26T17:57:26.506Z,3.20
2018-04-26T17:59:54.118Z,3.20
2018-04-26T18:02:21.815Z,3.17
2018-04-26T18:04:50.172Z,3.00
2018-04-26T18:07:18.811Z,3.60
2018-04-26T18:09:46.406Z,3.67
2018-04-26T18:12:13.999Z,3.57
2018-04-26T18:14:41.602Z,4.00
2018-04-26T18:17:09.227Z,3.50
2018-04-26T18:19:36.838Z,3.50
2018-04-26T18:22:04.434Z,3.30
2018-04-26T18:24:32.006Z,2.57
2018-04-26T18:26:59.583Z,3.00
2018-04-26T18:29:27.158Z,2.90
2018-04-26T18:31:54.818Z,3.93
2018-04-26T18:34:22.391Z,3.90
2018-04-26T18:36:50.037Z,3.50
2018-04-26T18:39:17.652Z,4.20
2018-04-26T18:41:45.365Z,3.87
2018-04-26T18:44:13.027Z,4.53
2018-04-26T18:46:40.644Z,4.40
2018-04-26T18:49:08.267Z,4.63
2018-04-26T18:51:38.739Z,4.40
2018-04-26T18:54:06.395Z,4.57
2018-04-26T18:56:35.409Z,3.67
2018-04-26T18:59:03.907Z,4.70
2018-04-26T19:01:31.529Z,3.90
2018-04-26T19:03:59.102Z,3.93
2018-04-26T19:06:26.717Z,3.30
2018-04-26T19:08:54.313Z,4.17
2018-04-26T19:11:21.942Z,3.63
2018-04-26T19:13:49.544Z,3.90
2018-04-26T19:16:17.255Z,3.70
2018-04-26T19:18:44.917Z,3.80
2018-04-26T19:21:12.572Z,3.90
2018-04-26T19:23:40.270Z,4.50
2018-04-26T19:26:07.926Z,5.37
2018-04-26T19:28:35.514Z,4.80
2018-04-26T19:31:03.188Z,4.60
2018-04-26T19:33:30.793Z,5.20
2018-04-26T19:35:58.560Z,4.70
2018-04-26T19:38:27.558Z,5.00
2018-04-26T19:43:44.363Z,4.80
2018-04-26T19:46:14.715Z,4.10
2018-04-26T19:48:47.171Z,4.83
2018-04-26T19:51:17.723Z,5.07
2018-04-26T19:53:48.178Z,4.20
2018-04-26T19:56:22.054Z,5.50
2018-04-26T19:58:57.732Z,3.90
2018-04-26T20:01:29.201Z,3.70
2018-04-26T20:04:15.886Z,2.63
2018-04-26T20:06:48.059Z,3.23
2018-04-26T20:09:26.044Z,3.23
2018-04-26T20:12:08.836Z,2.90
2018-04-26T20:14:45.843Z,3.57
2018-04-26T20:17:16.458Z,3.20
2018-04-26T20:19:58.492Z,3.17
2018-04-26T20:22:41.426Z,2.87
2018-04-26T20:25:09.028Z,3.20
2018-04-26T20:27:36.667Z,3.43
2018-04-26T20:30:04.246Z,3.83
2018-04-26T20:32:31.894Z,3.80
2018-04-26T20:35:03.824Z,3.60
2018-04-26T20:37:31.758Z,4.70
2018-04-26T20:40:02.198Z,4.57
2018-04-26T20:42:30.376Z,3.60
2018-04-26T20:45:04.596Z,4.10
2018-04-26T20:47:37.382Z,3.27
2018-04-26T20:50:08.266Z,3.33
2018-04-26T20:52:40.500Z,3.53
2018-04-26T20:55:10.501Z,3.50
2018-04-26T20:57:41.915Z,3.80
2018-04-26T21:03:11.173Z,3.20
2018-04-26T21:05:43.729Z,3.40
2018-04-26T21:08:15.122Z,3.63
2018-04-26T21:10:47.206Z,3.80
2018-04-26T21:13:21.999Z,3.97
2018-04-26T21:15:54.376Z,4.13
2018-04-26T21:18:37.458Z,4.23
2018-04-26T21:21:20.687Z,4.07
2018-04-26T21:23:48.339Z,3.87
2018-04-26T21:26:15.906Z,4.03
2018-04-26T21:28:43.590Z,4.23
2018-04-26T21:31:11.135Z,4.13
2018-04-26T21:33:38.717Z,3.40
2018-04-26T21:36:06.453Z,3.73
2018-04-26T21:38:34.036Z,3.30
2018-04-26T21:41:01.678Z,3.83
2018-04-26T21:43:29.340Z,3.80
2018-04-26T21:45:56.999Z,3.40
2018-04-26T21:48:24.594Z,3.87
2018-04-26T21:50:57.730Z,3.80
2018-04-26T21:53:30.944Z,3.10
2018-04-26T21:56:04.035Z,3.60
2018-04-26T21:58:37.202Z,4.07
2018-04-26T22:01:10.145Z,4.00
2018-04-26T22:06:38.657Z,4.67
2018-04-26T22:09:06.261Z,4.20
2018-04-26T22:11:33.863Z,4.27
2018-04-26T22:14:01.450Z,3.90
2018-04-26T22:16:29.174Z,3.53
2018-04-26T22:18:56.789Z,3.80
2018-04-26T22:21:24.359Z,3.70
2018-04-26T22:23:51.959Z,4.53
2018-04-26T22:26:19.540Z,3.33
2018-04-26T22:28:47.199Z,3.50
2018-04-26T22:31:14.797Z,4.53
2018-04-26T22:33:42.405Z,4.00
2018-04-26T22:36:09.977Z,4.17
2018-04-26T22:38:37.619Z,3.87
2018-04-26T22:41:05.189Z,5.10
2018-04-26T22:43:32.766Z,4.07
2018-04-26T22:46:00.339Z,4.07
2018-04-26T22:48:27.948Z,3.87
2018-04-26T22:50:55.519Z,3.97
2018-04-26T22:53:23.185Z,4.17
2018-04-26T22:55:50.782Z,4.27
2018-04-26T22:58:18.359Z,4.30
2018-04-26T23:00:45.970Z,4.27
2018-04-26T23:03:13.601Z,4.53
2018-04-26T23:05:41.174Z,3.87
2018-04-26T23:08:08.745Z,4.93
2018-04-26T23:10:36.326Z,4.17
2018-04-26T23:13:03.915Z,4.50
2018-04-26T23:15:33.477Z,5.73
2018-04-26T23:18:01.097Z,5.67
2018-04-26T23:20:28.672Z,4.67
2018-04-26T23:22:56.237Z,4.83
2018-04-26T23:25:23.812Z,5.30
2018-04-26T23:27:51.423Z,4.83
2018-04-26T23:30:19.053Z,4.50
2018-04-26T23:32:46.672Z,5.60
2018-04-26T23:35:14.245Z,5.60
2018-04-26T23:37:41.816Z,5.40
2018-04-26T23:40:09.390Z,5.10
2018-04-26T23:42:37.063Z,5.13
2018-04-26T23:45:04.730Z,4.63
2018-04-26T23:47:32.305Z,4.63
2018-04-26T23:49:59.956Z,5.03
2018-04-26T23:52:27.546Z,4.97
2018-04-26T23:54:55.122Z,4.67
2018-04-26T23:57:22.790Z,5.27
2018-04-26T23:59:50.456Z,4.77
